createdAt,value
2022-08-03T00:00:29.042Z,16.8
2022-08-03T00:05:48.370Z,16.94
2022-08-03T00:10:55.866Z,16.96
2022-08-03T00:16:03.412Z,16.88
2022-08-03T00:21:10.888Z,16.65
2022-08-03T00:26:18.460Z,16.33
2022-08-03T00:31:25.901Z,16.38
2022-08-03T00:36:32.219Z,16.56
2022-08-03T00:41:41.207Z,16.71
2022-08-03T00:46:48.321Z,16.46
2022-08-03T00:51:55.763Z,16.17
2022-08-03T00:57:02.371Z,16.19
2022-08-03T01:02:10.291Z,16.15
2022-08-03T01:07:17.362Z,15.93
2022-08-03T01:12:25.429Z,15.69
2022-08-03T01:17:32.447Z,15.62
2022-08-03T01:22:40.219Z,15.44
2022-08-03T01:27:47.982Z,15.57
2022-08-03T01:32:54.897Z,15.64
2022-08-03T01:38:02.460Z,15.54
2022-08-03T01:43:11.352Z,15.48
2022-08-03T01:48:19.659Z,15.48
2022-08-03T01:53:28.274Z,15.38
2022-08-03T01:58:35.133Z,15.34
2022-08-03T02:03:42.903Z,15.3
2022-08-03T02:08:50.132Z,15.2
2022-08-03T02:13:56.726Z,15.17
2022-08-03T02:19:04.532Z,15.22
2022-08-03T02:24:11.729Z,15.16
2022-08-03T02:29:19.595Z,15.14
2022-08-03T02:34:27.061Z,15.11
2022-08-03T02:39:34.822Z,15.07
2022-08-03T02:44:41.843Z,14.99
2022-08-03T02:49:48.356Z,14.88
2022-08-03T02:54:56.214Z,14.88
2022-08-03T03:00:04.052Z,14.88
2022-08-03T03:05:11.275Z,14.88
2022-08-03T03:10:18.404Z,15.02
2022-08-03T03:15:31.408Z,14.94
2022-08-03T03:20:38.360Z,14.94
2022-08-03T03:25:45.909Z,15.0
2022-08-03T03:30:53.713Z,14.89
2022-08-03T03:36:01.408Z,14.8
2022-08-03T03:41:08.060Z,14.82
2022-08-03T03:46:16.009Z,14.82
2022-08-03T03:51:23.943Z,14.93
2022-08-03T03:56:30.969Z,15.04
2022-08-03T04:01:38.799Z,15.1
2022-08-03T04:06:51.094Z,15.62
2022-08-03T04:11:59.192Z,16.51
2022-08-03T04:17:07.278Z,17.72
2022-08-03T04:22:15.210Z,19.04
2022-08-03T04:27:23.908Z,20.78
2022-08-03T04:32:31.925Z,22.7
2022-08-03T04:37:40.143Z,23.08
2022-08-03T04:42:47.250Z,24.36
2022-08-03T04:47:54.872Z,25.64
2022-08-03T04:53:01.646Z,26.35
2022-08-03T04:58:11.275Z,27.66
2022-08-03T05:03:18.608Z,28.52
2022-08-03T05:08:25.382Z,29.9
2022-08-03T05:13:33.012Z,30.76
2022-08-03T05:18:39.601Z,31.35
2022-08-03T05:23:46.772Z,31.84
2022-08-03T05:28:55.255Z,31.62
2022-08-03T05:35:34.284Z,31.42
2022-08-03T05:40:40.661Z,31.68
2022-08-03T05:45:49.086Z,32.44
2022-08-03T05:50:56.249Z,31.86
2022-08-03T05:56:03.462Z,32.45
2022-08-03T06:01:11.573Z,33.93
2022-08-03T06:06:19.097Z,33.19
2022-08-03T06:11:26.304Z,32.72
2022-08-03T06:16:34.138Z,33.86
2022-08-03T06:21:41.367Z,34.26
2022-08-03T06:26:49.647Z,34.75
2022-08-03T06:31:57.303Z,34.67
2022-08-03T06:37:05.337Z,35.27
2022-08-03T06:42:13.412Z,35.4
2022-08-03T06:47:21.731Z,35.26
2022-08-03T06:52:28.999Z,34.11
2022-08-03T06:57:36.790Z,33.76
2022-08-03T07:02:44.956Z,33.66
2022-08-03T07:07:52.735Z,34.35
2022-08-03T07:13:00.875Z,34.51
2022-08-03T07:18:08.848Z,34.84
2022-08-03T07:23:16.719Z,34.61
2022-08-03T07:28:25.688Z,34.85
2022-08-03T07:34:13.390Z,35.16
2022-08-03T07:39:19.914Z,35.48
2022-08-03T07:44:28.351Z,36.72
2022-08-03T07:49:35.586Z,36.22
2022-08-03T07:54:44.563Z,35.48
2022-08-03T07:59:54.254Z,36.94
2022-08-03T08:05:02.881Z,37.02
2022-08-03T08:10:11.281Z,37.57
2022-08-03T08:15:18.615Z,38.36
2022-08-03T08:20:25.873Z,37.7
2022-08-03T08:25:34.075Z,37.4
2022-08-03T08:30:41.954Z,37.32
2022-08-03T08:35:51.118Z,37.35
2022-08-03T08:40:58.436Z,37.08
2022-08-03T08:46:05.932Z,37.16
2022-08-03T08:51:13.846Z,37.36
2022-08-03T08:56:22.160Z,37.79
2022-08-03T09:01:29.835Z,37.36
2022-08-03T09:06:38.309Z,37.48
2022-08-03T09:11:45.708Z,37.08
2022-08-03T09:16:52.048Z,36.02
2022-08-03T09:21:59.431Z,35.92
2022-08-03T09:27:06.969Z,36.22
2022-08-03T09:32:23.126Z,36.88
2022-08-03T09:37:31.072Z,35.69
2022-08-03T09:42:37.730Z,34.38
2022-08-03T09:47:44.842Z,34.38
2022-08-03T09:52:56.332Z,33.54
2022-08-03T09:58:03.768Z,34.88
2022-08-03T10:03:11.609Z,35.2
2022-08-03T10:08:19.838Z,34.98
2022-08-03T10:13:27.502Z,34.22
2022-08-03T10:18:34.663Z,34.3
2022-08-03T10:23:43.053Z,34.94
2022-08-03T10:28:51.008Z,35.1
2022-08-03T10:33:58.641Z,33.98
2022-08-03T10:39:05.919Z,34.46
2022-08-03T10:44:13.019Z,34.13
2022-08-03T10:49:20.245Z,33.76
2022-08-03T10:54:28.012Z,33.29
2022-08-03T10:59:35.275Z,33.33
2022-08-03T11:04:43.609Z,32.88
2022-08-03T11:09:51.578Z,32.65
2022-08-03T11:14:58.971Z,33.2
2022-08-03T11:20:07.111Z,34.12
2022-08-03T11:25:13.819Z,33.46
2022-08-03T11:30:21.656Z,32.74
2022-08-03T11:35:28.866Z,32.56
2022-08-03T11:40:36.031Z,32.66
2022-08-03T11:45:42.614Z,32.51
2022-08-03T11:50:51.413Z,32.54
2022-08-03T11:55:59.102Z,32.48
2022-08-03T12:01:06.552Z,32.18
2022-08-03T12:06:13.924Z,32.34
2022-08-03T12:11:20.537Z,32.54
2022-08-03T12:16:27.960Z,32.29
2022-08-03T12:21:36.714Z,32.48
2022-08-03T12:27:34.675Z,32.04
2022-08-03T12:32:41.205Z,32.12
2022-08-03T12:37:49.656Z,32.1
2022-08-03T12:42:56.859Z,31.97
2022-08-03T12:48:05.048Z,32.11
2022-08-03T12:53:12.540Z,31.56
2022-08-03T12:58:21.075Z,31.46
2022-08-03T13:03:29.698Z,31.46
2022-08-03T13:08:38.144Z,31.64
2022-08-03T13:13:45.818Z,31.71
2022-08-03T13:18:54.499Z,32.16
2022-08-03T13:24:02.378Z,32.47
2022-08-03T13:29:08.691Z,32.13
2022-08-03T13:34:15.889Z,31.92
2022-08-03T13:39:24.335Z,32.32
2022-08-03T13:44:31.941Z,32.59
2022-08-03T13:49:39.447Z,32.53
2022-08-03T13:54:46.560Z,32.54
2022-08-03T13:59:53.853Z,32.26
2022-08-03T14:05:02.101Z,32.2
2022-08-03T14:10:10.344Z,32.89
2022-08-03T14:15:18.306Z,33.02
2022-08-03T14:20:26.962Z,33.54
2022-08-03T14:25:34.694Z,33.52
2022-08-03T14:30:41.496Z,33.06
2022-08-03T14:35:48.965Z,32.79
2022-08-03T14:40:56.964Z,33.32
2022-08-03T14:46:04.884Z,32.74
2022-08-03T14:51:13.090Z,32.63
2022-08-03T14:56:21.211Z,32.79
2022-08-03T15:01:44.422Z,32.51
2022-08-03T15:06:52.360Z,32.47
2022-08-03T15:12:00.207Z,32.44
2022-08-03T15:17:14.705Z,32.08
2022-08-03T15:22:23.447Z,31.92
2022-08-03T15:27:30.779Z,31.85
2022-08-03T15:32:37.416Z,31.69
2022-08-03T15:38:01.141Z,31.57
2022-08-03T15:43:08.844Z,31.66
2022-08-03T15:48:16.889Z,31.66
2022-08-03T15:53:24.380Z,31.64
2022-08-03T15:58:30.654Z,31.71
2022-08-03T16:03:38.006Z,31.55
2022-08-03T16:08:45.058Z,31.14
2022-08-03T16:13:53.213Z,31.21
2022-08-03T16:19:00.091Z,31.4
2022-08-03T16:24:08.178Z,31.51
2022-08-03T16:29:16.245Z,30.93
2022-08-03T16:34:22.933Z,30.2
2022-08-03T16:39:31.172Z,29.69
2022-08-03T16:44:39.855Z,29.4
2022-08-03T16:49:47.471Z,29.3
2022-08-03T16:54:53.660Z,29.2
2022-08-03T17:00:00.216Z,29.1
2022-08-03T17:05:07.415Z,29.03
2022-08-03T17:10:14.871Z,28.92
2022-08-03T17:15:23.434Z,28.8
2022-08-03T17:20:30.960Z,28.32
2022-08-03T17:25:37.495Z,27.42
2022-08-03T17:30:46.011Z,26.81
2022-08-03T17:35:53.825Z,26.22
2022-08-03T17:41:01.715Z,25.78
2022-08-03T17:46:09.089Z,25.33
2022-08-03T17:51:16.796Z,24.96
2022-08-03T17:56:23.896Z,24.65
2022-08-03T18:01:31.876Z,24.38
2022-08-03T18:06:39.447Z,24.19
2022-08-03T18:11:46.857Z,23.94
2022-08-03T18:16:54.220Z,23.64
2022-08-03T18:22:01.478Z,23.36
2022-08-03T18:27:10.042Z,23.14
2022-08-03T18:32:17.489Z,22.9
2022-08-03T18:37:24.124Z,22.69
2022-08-03T18:42:31.692Z,22.92
2022-08-03T18:47:37.827Z,22.57
2022-08-03T18:52:46.003Z,22.16
2022-08-03T18:57:53.538Z,21.82
2022-08-03T19:03:01.273Z,21.73
2022-08-03T19:08:07.934Z,21.11
2022-08-03T19:13:15.123Z,20.62
2022-08-03T19:18:22.997Z,20.4
2022-08-03T19:23:29.990Z,20.26
2022-08-03T19:28:37.688Z,20.29
2022-08-03T19:33:45.180Z,20.28
2022-08-03T19:38:52.321Z,20.17
2022-08-03T19:43:59.547Z,19.85
2022-08-03T19:49:06.779Z,19.71
2022-08-03T19:54:14.267Z,19.62
2022-08-03T19:59:22.971Z,19.54
2022-08-03T20:04:30.162Z,19.49
2022-08-03T20:09:37.512Z,19.38
2022-08-03T20:14:46.746Z,19.12
2022-08-03T20:19:54.980Z,18.96
2022-08-03T20:25:03.280Z,19.07
2022-08-03T20:30:11.857Z,19.07
2022-08-03T20:35:20.975Z,18.98
2022-08-03T20:40:29.019Z,18.88
2022-08-03T20:45:36.479Z,18.54
2022-08-03T20:50:44.484Z,18.49
2022-08-03T20:55:52.285Z,18.38
2022-08-03T21:01:00.080Z,18.07
2022-08-03T21:06:07.114Z,17.9
2022-08-03T21:11:15.675Z,17.93
2022-08-03T21:16:22.634Z,17.85
2022-08-03T21:21:30.041Z,17.8
2022-08-03T21:26:37.597Z,17.8
2022-08-03T21:31:44.648Z,17.76
2022-08-03T21:36:52.087Z,17.72
2022-08-03T21:42:00.410Z,17.76
2022-08-03T21:47:10.505Z,17.64
2022-08-03T21:52:18.730Z,17.52
2022-08-03T21:57:27.145Z,17.36
2022-08-03T22:02:35.462Z,17.26
2022-08-03T22:07:41.658Z,17.11
2022-08-03T22:12:49.462Z,16.93
2022-08-03T22:17:56.700Z,16.98
2022-08-03T22:23:04.411Z,16.98
2022-08-03T22:28:12.487Z,17.06
2022-08-03T22:33:20.425Z,17.14
2022-08-03T22:39:05.814Z,17.15
2022-08-03T22:44:13.493Z,17.07
2022-08-03T22:49:22.386Z,16.85
2022-08-03T22:54:31.283Z,16.83
2022-08-03T22:59:39.100Z,16.78
2022-08-03T23:04:46.433Z,16.64
2022-08-03T23:09:53.956Z,16.42
2022-08-03T23:15:00.977Z,16.38
2022-08-03T23:20:08.744Z,16.4
2022-08-03T23:25:15.102Z,16.48
2022-08-03T23:30:22.937Z,16.38
2022-08-03T23:35:31.843Z,16.33
2022-08-03T23:40:38.616Z,16.38
2022-08-03T23:45:46.258Z,16.28
2022-08-03T23:50:54.239Z,16.14
2022-08-03T23:56:02.005Z,16.02
